sensor_id;sensor_type;location;lat;lon;timestamp;temperature;humidity
7900;DHT22;3995;50.856;4.404;2023-03-16T00:00:41;11.40;48.10
7900;DHT22;3995;50.856;4.404;2023-03-16T00:03:10;11.40;48.20
7900;DHT22;3995;50.856;4.404;2023-03-16T00:05:44;11.40;48.20
7900;DHT22;3995;50.856;4.404;2023-03-16T00:08:12;11.40;48.20
7900;DHT22;3995;50.856;4.404;2023-03-16T00:10:39;11.40;48.30
7900;DHT22;3995;50.856;4.404;2023-03-16T00:13:11;11.40;48.40
7900;DHT22;3995;50.856;4.404;2023-03-16T00:15:38;11.40;48.50
7900;DHT22;3995;50.856;4.404;2023-03-16T00:18:06;11.40;48.40
7900;DHT22;3995;50.856;4.404;2023-03-16T00:20:35;11.40;48.40
7900;DHT22;3995;50.856;4.404;2023-03-16T00:23:03;11.40;48.30
7900;DHT22;3995;50.856;4.404;2023-03-16T00:25:30;11.40;48.30
7900;DHT22;3995;50.856;4.404;2023-03-16T00:27:59;11.40;48.50
7900;DHT22;3995;50.856;4.404;2023-03-16T00:30:28;11.40;48.60
7900;DHT22;3995;50.856;4.404;2023-03-16T00:32:56;11.40;48.70
7900;DHT22;3995;50.856;4.404;2023-03-16T00:35:23;11.40;48.70
7900;DHT22;3995;50.856;4.404;2023-03-16T00:37:52;11.40;48.70
7900;DHT22;3995;50.856;4.404;2023-03-16T00:40:22;11.40;48.90
7900;DHT22;3995;50.856;4.404;2023-03-16T00:42:49;11.40;48.90
7900;DHT22;3995;50.856;4.404;2023-03-16T00:45:16;11.40;48.90
7900;DHT22;3995;50.856;4.404;2023-03-16T00:47:44;11.40;49.00
7900;DHT22;3995;50.856;4.404;2023-03-16T00:50:11;11.40;48.90
7900;DHT22;3995;50.856;4.404;2023-03-16T00:52:39;11.40;49.00
7900;DHT22;3995;50.856;4.404;2023-03-16T00:55:09;11.40;49.10
7900;DHT22;3995;50.856;4.404;2023-03-16T00:57:36;11.40;49.20
7900;DHT22;3995;50.856;4.404;2023-03-16T01:00:04;11.40;49.40
7900;DHT22;3995;50.856;4.404;2023-03-16T01:02:37;11.40;49.20
7900;DHT22;3995;50.856;4.404;2023-03-16T01:05:06;11.40;49.30
7900;DHT22;3995;50.856;4.404;2023-03-16T01:07:33;11.40;49.40
7900;DHT22;3995;50.856;4.404;2023-03-16T01:10:02;11.40;49.40
7900;DHT22;3995;50.856;4.404;2023-03-16T01:12:31;11.40;49.40
7900;DHT22;3995;50.856;4.404;2023-03-16T01:14:58;11.40;49.40
7900;DHT22;3995;50.856;4.404;2023-03-16T01:17:26;11.40;49.40
7900;DHT22;3995;50.856;4.404;2023-03-16T01:19:53;11.40;49.50
7900;DHT22;3995;50.856;4.404;2023-03-16T01:22:20;11.40;49.50
7900;DHT22;3995;50.856;4.404;2023-03-16T01:24:48;11.40;49.50
7900;DHT22;3995;50.856;4.404;2023-03-16T01:27:15;11.40;49.50
7900;DHT22;3995;50.856;4.404;2023-03-16T01:29:44;11.40;49.70
7900;DHT22;3995;50.856;4.404;2023-03-16T01:32:11;11.40;49.70
7900;DHT22;3995;50.856;4.404;2023-03-16T01:34:39;11.40;49.80
7900;DHT22;3995;50.856;4.404;2023-03-16T01:37:06;11.40;49.90
7900;DHT22;3995;50.856;4.404;2023-03-16T01:39:34;11.40;50.10
7900;DHT22;3995;50.856;4.404;2023-03-16T01:42:01;11.40;50.20
7900;DHT22;3995;50.856;4.404;2023-03-16T01:44:47;11.40;50.50
7900;DHT22;3995;50.856;4.404;2023-03-16T01:47:18;11.30;50.60
7900;DHT22;3995;50.856;4.404;2023-03-16T01:49:45;11.30;50.90
7900;DHT22;3995;50.856;4.404;2023-03-16T01:52:17;11.30;51.20
7900;DHT22;3995;50.856;4.404;2023-03-16T01:54:47;11.30;51.50
7900;DHT22;3995;50.856;4.404;2023-03-16T01:57:18;11.40;51.90
7900;DHT22;3995;50.856;4.404;2023-03-16T01:59:49;11.30;51.90
7900;DHT22;3995;50.856;4.404;2023-03-16T02:02:20;11.30;52.00
7900;DHT22;3995;50.856;4.404;2023-03-16T02:04:51;11.30;52.30
7900;DHT22;3995;50.856;4.404;2023-03-16T02:07:23;11.30;52.30
7900;DHT22;3995;50.856;4.404;2023-03-16T02:09:53;11.30;52.40
7900;DHT22;3995;50.856;4.404;2023-03-16T02:12:22;11.30;52.40
7900;DHT22;3995;50.856;4.404;2023-03-16T02:14:50;11.30;52.60
7900;DHT22;3995;50.856;4.404;2023-03-16T02:17:21;11.30;52.90
7900;DHT22;3995;50.856;4.404;2023-03-16T02:19:58;11.30;53.00
7900;DHT22;3995;50.856;4.404;2023-03-16T02:22:33;11.30;53.30
7900;DHT22;3995;50.856;4.404;2023-03-16T02:25:01;11.30;53.30
7900;DHT22;3995;50.856;4.404;2023-03-16T02:27:34;11.30;53.40
7900;DHT22;3995;50.856;4.404;2023-03-16T02:30:10;11.30;53.40
7900;DHT22;3995;50.856;4.404;2023-03-16T02:32:39;11.30;53.40
7900;DHT22;3995;50.856;4.404;2023-03-16T02:35:09;11.30;53.50
7900;DHT22;3995;50.856;4.404;2023-03-16T02:37:37;11.30;53.60
7900;DHT22;3995;50.856;4.404;2023-03-16T02:40:17;11.30;53.70
7900;DHT22;3995;50.856;4.404;2023-03-16T02:42:47;11.40;53.80
7900;DHT22;3995;50.856;4.404;2023-03-16T02:45:20;11.30;53.90
7900;DHT22;3995;50.856;4.404;2023-03-16T02:47:51;11.30;53.80
7900;DHT22;3995;50.856;4.404;2023-03-16T02:50:19;11.40;53.90
7900;DHT22;3995;50.856;4.404;2023-03-16T02:52:47;11.30;53.80
7900;DHT22;3995;50.856;4.404;2023-03-16T02:55:14;11.30;53.90
7900;DHT22;3995;50.856;4.404;2023-03-16T02:57:41;11.30;54.10
7900;DHT22;3995;50.856;4.404;2023-03-16T03:00:10;11.30;54.10
7900;DHT22;3995;50.856;4.404;2023-03-16T03:02:43;11.30;54.10
7900;DHT22;3995;50.856;4.404;2023-03-16T03:05:11;11.30;54.00
7900;DHT22;3995;50.856;4.404;2023-03-16T03:07:38;11.30;54.10
7900;DHT22;3995;50.856;4.404;2023-03-16T03:10:05;11.30;54.20
7900;DHT22;3995;50.856;4.404;2023-03-16T03:12:34;11.30;54.10
7900;DHT22;3995;50.856;4.404;2023-03-16T03:15:01;11.40;54.20
7900;DHT22;3995;50.856;4.404;2023-03-16T03:17:28;11.40;54.00
7900;DHT22;3995;50.856;4.404;2023-03-16T03:19:57;11.40;54.00
7900;DHT22;3995;50.856;4.404;2023-03-16T03:22:25;11.40;54.00
7900;DHT22;3995;50.856;4.404;2023-03-16T03:24:53;11.40;53.80
7900;DHT22;3995;50.856;4.404;2023-03-16T03:27:20;11.40;53.90
7900;DHT22;3995;50.856;4.404;2023-03-16T03:29:49;11.40;54.00
7900;DHT22;3995;50.856;4.404;2023-03-16T03:32:16;11.40;54.00
7900;DHT22;3995;50.856;4.404;2023-03-16T03:34:44;11.40;54.00
7900;DHT22;3995;50.856;4.404;2023-03-16T03:37:13;11.30;53.80
7900;DHT22;3995;50.856;4.404;2023-03-16T03:39:40;11.40;53.80
7900;DHT22;3995;50.856;4.404;2023-03-16T03:42:07;11.40;53.70
7900;DHT22;3995;50.856;4.404;2023-03-16T03:44:36;11.40;54.20
7900;DHT22;3995;50.856;4.404;2023-03-16T03:47:03;11.40;53.60
7900;DHT22;3995;50.856;4.404;2023-03-16T03:49:31;11.40;53.50
7900;DHT22;3995;50.856;4.404;2023-03-16T03:51:58;11.40;53.40
7900;DHT22;3995;50.856;4.404;2023-03-16T03:54:31;11.40;53.20
7900;DHT22;3995;50.856;4.404;2023-03-16T03:56:58;11.40;53.30
7900;DHT22;3995;50.856;4.404;2023-03-16T03:59:26;11.40;53.20
7900;DHT22;3995;50.856;4.404;2023-03-16T04:01:53;11.40;53.00
7900;DHT22;3995;50.856;4.404;2023-03-16T04:04:21;11.30;52.90
7900;DHT22;3995;50.856;4.404;2023-03-16T04:06:48;11.30;52.80
7900;DHT22;3995;50.856;4.404;2023-03-16T04:09:16;11.40;52.90
7900;DHT22;3995;50.856;4.404;2023-03-16T04:11:45;11.40;53.00
7900;DHT22;3995;50.856;4.404;2023-03-16T04:14:12;11.40;52.90
7900;DHT22;3995;50.856;4.404;2023-03-16T04:16:39;11.40;53.40
7900;DHT22;3995;50.856;4.404;2023-03-16T04:19:08;11.40;52.60
7900;DHT22;3995;50.856;4.404;2023-03-16T04:21:36;11.30;52.40
7900;DHT22;3995;50.856;4.404;2023-03-16T04:24:03;11.40;52.30
7900;DHT22;3995;50.856;4.404;2023-03-16T04:26:31;11.30;52.30
7900;DHT22;3995;50.856;4.404;2023-03-16T04:29:00;11.30;52.40
7900;DHT22;3995;50.856;4.404;2023-03-16T04:31:28;11.40;52.40
7900;DHT22;3995;50.856;4.404;2023-03-16T04:33:55;11.30;52.50
7900;DHT22;3995;50.856;4.404;2023-03-16T04:36:22;11.30;52.50
7900;DHT22;3995;50.856;4.404;2023-03-16T04:38:51;11.40;52.50
7900;DHT22;3995;50.856;4.404;2023-03-16T04:41:19;11.30;52.50
7900;DHT22;3995;50.856;4.404;2023-03-16T04:43:46;11.30;52.60
7900;DHT22;3995;50.856;4.404;2023-03-16T04:46:15;11.30;52.60
7900;DHT22;3995;50.856;4.404;2023-03-16T04:48:42;11.30;52.70
7900;DHT22;3995;50.856;4.404;2023-03-16T04:51:09;11.30;52.80
7900;DHT22;3995;50.856;4.404;2023-03-16T04:53:37;11.30;52.80
7900;DHT22;3995;50.856;4.404;2023-03-16T04:56:04;11.30;52.90
7900;DHT22;3995;50.856;4.404;2023-03-16T04:58:32;11.30;53.00
7900;DHT22;3995;50.856;4.404;2023-03-16T05:01:00;11.30;52.80
7900;DHT22;3995;50.856;4.404;2023-03-16T05:03:29;11.30;53.30
7900;DHT22;3995;50.856;4.404;2023-03-16T05:05:57;11.30;53.50
7900;DHT22;3995;50.856;4.404;2023-03-16T05:08:24;11.30;53.40
7900;DHT22;3995;50.856;4.404;2023-03-16T05:10:55;11.20;53.40
7900;DHT22;3995;50.856;4.404;2023-03-16T05:13:22;11.30;53.70
7900;DHT22;3995;50.856;4.404;2023-03-16T05:15:50;11.20;53.90
7900;DHT22;3995;50.856;4.404;2023-03-16T05:18:18;11.30;53.90
7900;DHT22;3995;50.856;4.404;2023-03-16T05:20:50;11.20;53.70
7900;DHT22;3995;50.856;4.404;2023-03-16T05:23:18;11.20;53.50
7900;DHT22;3995;50.856;4.404;2023-03-16T05:25:45;11.20;53.60
7900;DHT22;3995;50.856;4.404;2023-03-16T05:28:12;11.20;53.60
7900;DHT22;3995;50.856;4.404;2023-03-16T05:30:40;11.20;53.70
7900;DHT22;3995;50.856;4.404;2023-03-16T05:33:08;11.20;53.70
7900;DHT22;3995;50.856;4.404;2023-03-16T05:35:35;11.20;53.80
7900;DHT22;3995;50.856;4.404;2023-03-16T05:38:04;11.20;54.10
7900;DHT22;3995;50.856;4.404;2023-03-16T05:40:33;11.20;53.40
7900;DHT22;3995;50.856;4.404;2023-03-16T05:43:02;11.10;53.40
7900;DHT22;3995;50.856;4.404;2023-03-16T05:45:30;11.20;53.30
7900;DHT22;3995;50.856;4.404;2023-03-16T05:47:58;11.20;53.30
7900;DHT22;3995;50.856;4.404;2023-03-16T05:50:25;11.20;53.30
7900;DHT22;3995;50.856;4.404;2023-03-16T05:52:53;11.20;53.30
7900;DHT22;3995;50.856;4.404;2023-03-16T05:55:22;11.20;53.40
7900;DHT22;3995;50.856;4.404;2023-03-16T05:57:49;11.20;53.30
7900;DHT22;3995;50.856;4.404;2023-03-16T06:00:17;11.20;53.20
7900;DHT22;3995;50.856;4.404;2023-03-16T06:02:46;11.20;53.00
7900;DHT22;3995;50.856;4.404;2023-03-16T06:05:13;11.20;52.80
7900;DHT22;3995;50.856;4.404;2023-03-16T06:07:41;11.20;52.80
7900;DHT22;3995;50.856;4.404;2023-03-16T06:10:10;11.20;52.70
7900;DHT22;3995;50.856;4.404;2023-03-16T06:12:39;11.20;52.70
7900;DHT22;3995;50.856;4.404;2023-03-16T06:15:08;11.20;52.50
7900;DHT22;3995;50.856;4.404;2023-03-16T06:17:36;11.20;52.60
7900;DHT22;3995;50.856;4.404;2023-03-16T06:20:06;11.20;52.50
7900;DHT22;3995;50.856;4.404;2023-03-16T06:22:36;11.20;52.60
7900;DHT22;3995;50.856;4.404;2023-03-16T06:25:04;11.20;52.40
7900;DHT22;3995;50.856;4.404;2023-03-16T06:27:31;11.20;52.30
7900;DHT22;3995;50.856;4.404;2023-03-16T06:30:00;11.20;52.40
7900;DHT22;3995;50.856;4.404;2023-03-16T06:32:28;11.20;52.30
7900;DHT22;3995;50.856;4.404;2023-03-16T06:34:55;11.20;52.40
7900;DHT22;3995;50.856;4.404;2023-03-16T06:37:24;11.20;52.30
7900;DHT22;3995;50.856;4.404;2023-03-16T06:39:51;11.20;52.10
7900;DHT22;3995;50.856;4.404;2023-03-16T06:42:19;11.20;51.90
7900;DHT22;3995;50.856;4.404;2023-03-16T06:44:46;11.20;51.90
7900;DHT22;3995;50.856;4.404;2023-03-16T06:47:15;11.20;51.80
7900;DHT22;3995;50.856;4.404;2023-03-16T06:49:42;11.20;51.70
7900;DHT22;3995;50.856;4.404;2023-03-16T06:52:11;11.20;51.50
7900;DHT22;3995;50.856;4.404;2023-03-16T06:54:39;11.20;51.50
7900;DHT22;3995;50.856;4.404;2023-03-16T06:57:07;11.20;51.50
7900;DHT22;3995;50.856;4.404;2023-03-16T06:59:34;11.20;51.30
7900;DHT22;3995;50.856;4.404;2023-03-16T07:02:01;11.20;51.20
7900;DHT22;3995;50.856;4.404;2023-03-16T07:04:30;11.20;51.20
7900;DHT22;3995;50.856;4.404;2023-03-16T07:06:57;11.30;51.20
7900;DHT22;3995;50.856;4.404;2023-03-16T07:09:24;11.20;51.00
7900;DHT22;3995;50.856;4.404;2023-03-16T07:11:52;11.30;50.80
7900;DHT22;3995;50.856;4.404;2023-03-16T07:14:19;11.30;50.80
7900;DHT22;3995;50.856;4.404;2023-03-16T07:16:48;11.30;50.60
7900;DHT22;3995;50.856;4.404;2023-03-16T07:19:15;11.30;50.50
7900;DHT22;3995;50.856;4.404;2023-03-16T07:21:44;11.30;50.60
7900;DHT22;3995;50.856;4.404;2023-03-16T07:24:11;11.30;50.50
7900;DHT22;3995;50.856;4.404;2023-03-16T07:26:38;11.30;50.30
7900;DHT22;3995;50.856;4.404;2023-03-16T07:29:06;11.30;50.10
7900;DHT22;3995;50.856;4.404;2023-03-16T07:31:34;11.30;49.90
7900;DHT22;3995;50.856;4.404;2023-03-16T07:34:03;11.30;49.70
7900;DHT22;3995;50.856;4.404;2023-03-16T07:36:31;11.30;49.60
7900;DHT22;3995;50.856;4.404;2023-03-16T07:38:59;11.30;49.50
7900;DHT22;3995;50.856;4.404;2023-03-16T07:41:26;11.30;49.30
7900;DHT22;3995;50.856;4.404;2023-03-16T07:43:54;11.30;49.20
7900;DHT22;3995;50.856;4.404;2023-03-16T07:46:23;11.30;49.20
7900;DHT22;3995;50.856;4.404;2023-03-16T07:48:50;11.30;49.20
7900;DHT22;3995;50.856;4.404;2023-03-16T07:51:18;11.40;49.10
7900;DHT22;3995;50.856;4.404;2023-03-16T07:53:46;11.40;48.90
7900;DHT22;3995;50.856;4.404;2023-03-16T07:56:15;11.40;48.80
7900;DHT22;3995;50.856;4.404;2023-03-16T07:58:42;11.50;48.70
7900;DHT22;3995;50.856;4.404;2023-03-16T08:01:09;11.50;48.60
7900;DHT22;3995;50.856;4.404;2023-03-16T08:03:37;11.50;48.70
7900;DHT22;3995;50.856;4.404;2023-03-16T08:06:05;11.50;48.60
7900;DHT22;3995;50.856;4.404;2023-03-16T08:08:33;11.50;48.30
7900;DHT22;3995;50.856;4.404;2023-03-16T08:11:01;11.50;48.20
7900;DHT22;3995;50.856;4.404;2023-03-16T08:13:30;11.50;48.00
7900;DHT22;3995;50.856;4.404;2023-03-16T08:15:59;11.60;48.20
7900;DHT22;3995;50.856;4.404;2023-03-16T08:18:28;11.60;47.80
7900;DHT22;3995;50.856;4.404;2023-03-16T08:20:55;11.60;47.80
7900;DHT22;3995;50.856;4.404;2023-03-16T08:23:23;11.60;47.50
7900;DHT22;3995;50.856;4.404;2023-03-16T08:25:52;11.60;47.50
7900;DHT22;3995;50.856;4.404;2023-03-16T08:28:19;11.60;47.30
7900;DHT22;3995;50.856;4.404;2023-03-16T08:30:50;11.70;47.30
7900;DHT22;3995;50.856;4.404;2023-03-16T08:33:18;11.70;47.20
7900;DHT22;3995;50.856;4.404;2023-03-16T08:35:46;11.70;47.00
7900;DHT22;3995;50.856;4.404;2023-03-16T08:38:14;11.70;47.00
7900;DHT22;3995;50.856;4.404;2023-03-16T08:40:42;11.70;46.80
7900;DHT22;3995;50.856;4.404;2023-03-16T08:43:13;11.80;46.80
7900;DHT22;3995;50.856;4.404;2023-03-16T08:45:40;11.80;46.60
7900;DHT22;3995;50.856;4.404;2023-03-16T08:48:10;11.80;46.30
7900;DHT22;3995;50.856;4.404;2023-03-16T08:50:39;11.80;46.30
7900;DHT22;3995;50.856;4.404;2023-03-16T08:53:08;11.80;46.40
7900;DHT22;3995;50.856;4.404;2023-03-16T08:55:36;11.90;46.20
7900;DHT22;3995;50.856;4.404;2023-03-16T08:58:05;11.90;46.00
7900;DHT22;3995;50.856;4.404;2023-03-16T09:00:32;11.90;46.00
7900;DHT22;3995;50.856;4.404;2023-03-16T09:02:59;12.00;46.60
7900;DHT22;3995;50.856;4.404;2023-03-16T09:05:29;12.00;45.80
7900;DHT22;3995;50.856;4.404;2023-03-16T09:07:57;12.10;45.80
7900;DHT22;3995;50.856;4.404;2023-03-16T09:10:25;12.10;45.50
7900;DHT22;3995;50.856;4.404;2023-03-16T09:12:52;12.10;45.40
7900;DHT22;3995;50.856;4.404;2023-03-16T09:15:20;12.10;45.30
7900;DHT22;3995;50.856;4.404;2023-03-16T09:17:48;12.10;45.40
7900;DHT22;3995;50.856;4.404;2023-03-16T09:20:16;12.10;45.50
7900;DHT22;3995;50.856;4.404;2023-03-16T09:22:47;12.20;45.70
7900;DHT22;3995;50.856;4.404;2023-03-16T09:25:14;12.20;45.50
7900;DHT22;3995;50.856;4.404;2023-03-16T09:27:41;12.20;45.40
7900;DHT22;3995;50.856;4.404;2023-03-16T09:30:10;12.20;45.30
7900;DHT22;3995;50.856;4.404;2023-03-16T09:32:37;12.30;45.20
7900;DHT22;3995;50.856;4.404;2023-03-16T09:35:05;12.30;45.20
7900;DHT22;3995;50.856;4.404;2023-03-16T09:37:33;12.30;45.60
7900;DHT22;3995;50.856;4.404;2023-03-16T09:40:03;12.30;44.80
7900;DHT22;3995;50.856;4.404;2023-03-16T09:42:34;12.30;44.70
7900;DHT22;3995;50.856;4.404;2023-03-16T09:45:11;12.30;44.60
7900;DHT22;3995;50.856;4.404;2023-03-16T09:47:41;12.40;44.70
7900;DHT22;3995;50.856;4.404;2023-03-16T09:50:15;12.40;44.60
7900;DHT22;3995;50.856;4.404;2023-03-16T09:52:54;12.50;44.70
7900;DHT22;3995;50.856;4.404;2023-03-16T09:55:29;12.50;44.50
7900;DHT22;3995;50.856;4.404;2023-03-16T09:57:58;12.50;44.60
7900;DHT22;3995;50.856;4.404;2023-03-16T10:00:30;12.60;44.90
7900;DHT22;3995;50.856;4.404;2023-03-16T10:03:10;12.70;44.80
7900;DHT22;3995;50.856;4.404;2023-03-16T10:05:42;12.80;44.80
7900;DHT22;3995;50.856;4.404;2023-03-16T10:08:14;12.80;44.70
7900;DHT22;3995;50.856;4.404;2023-03-16T10:11:02;12.90;44.20
7900;DHT22;3995;50.856;4.404;2023-03-16T10:13:39;13.00;43.90
7900;DHT22;3995;50.856;4.404;2023-03-16T10:16:12;13.00;44.00
7900;DHT22;3995;50.856;4.404;2023-03-16T10:18:42;13.10;44.00
7900;DHT22;3995;50.856;4.404;2023-03-16T10:21:11;13.30;43.60
7900;DHT22;3995;50.856;4.404;2023-03-16T10:23:40;13.40;43.30
7900;DHT22;3995;50.856;4.404;2023-03-16T10:26:13;13.50;42.90
7900;DHT22;3995;50.856;4.404;2023-03-16T10:28:43;13.70;42.60
7900;DHT22;3995;50.856;4.404;2023-03-16T10:31:12;13.80;42.60
7900;DHT22;3995;50.856;4.404;2023-03-16T10:33:40;13.90;42.50
7900;DHT22;3995;50.856;4.404;2023-03-16T10:36:17;14.10;42.50
7900;DHT22;3995;50.856;4.404;2023-03-16T10:38:51;14.40;42.30
7900;DHT22;3995;50.856;4.404;2023-03-16T10:41:23;14.60;41.90
7900;DHT22;3995;50.856;4.404;2023-03-16T10:43:54;14.80;41.70
7900;DHT22;3995;50.856;4.404;2023-03-16T10:46:24;15.10;41.30
7900;DHT22;3995;50.856;4.404;2023-03-16T10:48:53;15.30;41.00
7900;DHT22;3995;50.856;4.404;2023-03-16T10:51:26;15.50;40.40
7900;DHT22;3995;50.856;4.404;2023-03-16T10:54:05;15.60;40.30
7900;DHT22;3995;50.856;4.404;2023-03-16T10:56:36;15.80;40.20
7900;DHT22;3995;50.856;4.404;2023-03-16T10:59:19;15.80;40.10
7900;DHT22;3995;50.856;4.404;2023-03-16T11:01:52;15.90;39.60
7900;DHT22;3995;50.856;4.404;2023-03-16T11:04:20;15.90;39.60
7900;DHT22;3995;50.856;4.404;2023-03-16T11:06:50;15.90;39.20
7900;DHT22;3995;50.856;4.404;2023-03-16T11:09:21;15.90;38.70
7900;DHT22;3995;50.856;4.404;2023-03-16T11:11:51;15.80;38.50
7900;DHT22;3995;50.856;4.404;2023-03-16T11:14:20;15.80;38.40
7900;DHT22;3995;50.856;4.404;2023-03-16T11:16:52;15.80;38.20
7900;DHT22;3995;50.856;4.404;2023-03-16T11:19:26;15.80;38.20
7900;DHT22;3995;50.856;4.404;2023-03-16T11:21:58;15.80;38.60
7900;DHT22;3995;50.856;4.404;2023-03-16T11:24:32;15.80;38.70
7900;DHT22;3995;50.856;4.404;2023-03-16T11:27:12;15.80;38.20
7900;DHT22;3995;50.856;4.404;2023-03-16T11:29:47;15.80;38.00
7900;DHT22;3995;50.856;4.404;2023-03-16T11:32:22;15.80;38.20
7900;DHT22;3995;50.856;4.404;2023-03-16T11:34:51;15.80;38.60
7900;DHT22;3995;50.856;4.404;2023-03-16T11:37:28;15.80;38.40
7900;DHT22;3995;50.856;4.404;2023-03-16T11:40:04;15.80;38.50
7900;DHT22;3995;50.856;4.404;2023-03-16T11:42:47;15.80;38.70
7900;DHT22;3995;50.856;4.404;2023-03-16T11:45:27;15.80;39.00
7900;DHT22;3995;50.856;4.404;2023-03-16T11:48:17;15.70;39.10
7900;DHT22;3995;50.856;4.404;2023-03-16T11:51:08;15.70;38.90
7900;DHT22;3995;50.856;4.404;2023-03-16T11:53:48;15.70;38.80
7900;DHT22;3995;50.856;4.404;2023-03-16T11:56:38;15.60;38.70
7900;DHT22;3995;50.856;4.404;2023-03-16T12:02:27;15.60;38.90
7900;DHT22;3995;50.856;4.404;2023-03-16T12:05:20;15.70;39.10
7900;DHT22;3995;50.856;4.404;2023-03-16T12:07:57;15.70;38.80
7900;DHT22;3995;50.856;4.404;2023-03-16T12:10:33;15.70;38.40
7900;DHT22;3995;50.856;4.404;2023-03-16T12:13:17;15.70;38.10
7900;DHT22;3995;50.856;4.404;2023-03-16T12:15:50;15.70;38.20
7900;DHT22;3995;50.856;4.404;2023-03-16T12:18:24;15.60;38.00
7900;DHT22;3995;50.856;4.404;2023-03-16T12:20:54;15.60;37.80
7900;DHT22;3995;50.856;4.404;2023-03-16T12:23:26;15.50;37.80
7900;DHT22;3995;50.856;4.404;2023-03-16T12:25:56;15.50;38.80
7900;DHT22;3995;50.856;4.404;2023-03-16T12:28:25;15.40;37.80
7900;DHT22;3995;50.856;4.404;2023-03-16T12:31:09;15.40;37.70
7900;DHT22;3995;50.856;4.404;2023-03-16T12:34:01;15.40;37.40
7900;DHT22;3995;50.856;4.404;2023-03-16T12:36:49;15.30;37.10
7900;DHT22;3995;50.856;4.404;2023-03-16T12:39:26;15.30;37.20
7900;DHT22;3995;50.856;4.404;2023-03-16T12:42:05;15.20;37.30
7900;DHT22;3995;50.856;4.404;2023-03-16T12:44:38;15.20;37.50
7900;DHT22;3995;50.856;4.404;2023-03-16T12:47:14;15.10;37.50
7900;DHT22;3995;50.856;4.404;2023-03-16T12:49:45;15.20;37.30
7900;DHT22;3995;50.856;4.404;2023-03-16T12:52:17;15.10;37.30
7900;DHT22;3995;50.856;4.404;2023-03-16T12:54:49;15.10;37.00
7900;DHT22;3995;50.856;4.404;2023-03-16T12:57:18;15.10;37.10
7900;DHT22;3995;50.856;4.404;2023-03-16T12:59:47;15.10;37.20
7900;DHT22;3995;50.856;4.404;2023-03-16T13:02:18;15.10;37.40
7900;DHT22;3995;50.856;4.404;2023-03-16T13:04:56;15.10;37.10
7900;DHT22;3995;50.856;4.404;2023-03-16T13:07:25;15.10;37.30
7900;DHT22;3995;50.856;4.404;2023-03-16T13:09:56;15.10;37.50
7900;DHT22;3995;50.856;4.404;2023-03-16T13:12:26;15.10;37.50
7900;DHT22;3995;50.856;4.404;2023-03-16T13:14:53;15.10;37.30
7900;DHT22;3995;50.856;4.404;2023-03-16T13:17:24;15.10;37.10
7900;DHT22;3995;50.856;4.404;2023-03-16T13:20:05;15.10;36.90
7900;DHT22;3995;50.856;4.404;2023-03-16T13:22:44;15.10;37.60
7900;DHT22;3995;50.856;4.404;2023-03-16T13:25:16;15.10;37.10
7900;DHT22;3995;50.856;4.404;2023-03-16T13:27:50;15.10;37.00
7900;DHT22;3995;50.856;4.404;2023-03-16T13:30:20;15.10;37.00
7900;DHT22;3995;50.856;4.404;2023-03-16T13:32:53;15.10;37.30
7900;DHT22;3995;50.856;4.404;2023-03-16T13:35:26;15.10;37.20
7900;DHT22;3995;50.856;4.404;2023-03-16T13:37:54;15.10;37.10
7900;DHT22;3995;50.856;4.404;2023-03-16T13:40:23;15.10;37.10
7900;DHT22;3995;50.856;4.404;2023-03-16T13:42:52;15.10;37.40
7900;DHT22;3995;50.856;4.404;2023-03-16T13:45:23;15.10;37.40
7900;DHT22;3995;50.856;4.404;2023-03-16T13:47:54;15.10;37.30
7900;DHT22;3995;50.856;4.404;2023-03-16T13:50:23;15.10;37.20
7900;DHT22;3995;50.856;4.404;2023-03-16T13:52:55;15.10;37.00
7900;DHT22;3995;50.856;4.404;2023-03-16T13:55:29;15.10;37.00
7900;DHT22;3995;50.856;4.404;2023-03-16T13:57:56;15.10;37.10
7900;DHT22;3995;50.856;4.404;2023-03-16T14:00:26;15.10;37.40
7900;DHT22;3995;50.856;4.404;2023-03-16T14:02:55;15.10;37.50
7900;DHT22;3995;50.856;4.404;2023-03-16T14:05:27;15.10;37.80
7900;DHT22;3995;50.856;4.404;2023-03-16T14:07:55;15.10;38.10
7900;DHT22;3995;50.856;4.404;2023-03-16T14:10:27;15.10;38.30
7900;DHT22;3995;50.856;4.404;2023-03-16T14:12:56;15.10;38.50
7900;DHT22;3995;50.856;4.404;2023-03-16T14:15:25;15.10;38.40
7900;DHT22;3995;50.856;4.404;2023-03-16T14:17:53;15.10;38.50
7900;DHT22;3995;50.856;4.404;2023-03-16T14:20:23;15.10;38.40
7900;DHT22;3995;50.856;4.404;2023-03-16T14:22:52;15.10;38.60
7900;DHT22;3995;50.856;4.404;2023-03-16T14:25:22;15.10;38.70
7900;DHT22;3995;50.856;4.404;2023-03-16T14:27:57;15.10;38.70
7900;DHT22;3995;50.856;4.404;2023-03-16T14:30:26;15.10;38.90
7900;DHT22;3995;50.856;4.404;2023-03-16T14:32:57;15.10;39.10
7900;DHT22;3995;50.856;4.404;2023-03-16T14:35:27;15.10;39.20
7900;DHT22;3995;50.856;4.404;2023-03-16T14:37:56;15.10;38.40
7900;DHT22;3995;50.856;4.404;2023-03-16T14:40:27;15.10;37.80
7900;DHT22;3995;50.856;4.404;2023-03-16T14:42:56;15.10;37.20
7900;DHT22;3995;50.856;4.404;2023-03-16T14:45:29;15.10;36.60
7900;DHT22;3995;50.856;4.404;2023-03-16T14:48:02;15.10;36.90
7900;DHT22;3995;50.856;4.404;2023-03-16T14:50:30;15.10;37.10
7900;DHT22;3995;50.856;4.404;2023-03-16T14:53:03;15.10;37.40
7900;DHT22;3995;50.856;4.404;2023-03-16T14:55:31;15.10;36.90
7900;DHT22;3995;50.856;4.404;2023-03-16T14:57:58;15.10;37.00
7900;DHT22;3995;50.856;4.404;2023-03-16T15:00:26;15.10;36.80
7900;DHT22;3995;50.856;4.404;2023-03-16T15:02:59;15.20;37.00
7900;DHT22;3995;50.856;4.404;2023-03-16T15:05:32;15.20;37.30
7900;DHT22;3995;50.856;4.404;2023-03-16T15:08:02;15.20;37.80
7900;DHT22;3995;50.856;4.404;2023-03-16T15:10:32;15.20;38.10
7900;DHT22;3995;50.856;4.404;2023-03-16T15:13:01;15.20;38.10
7900;DHT22;3995;50.856;4.404;2023-03-16T15:15:39;15.20;38.20
7900;DHT22;3995;50.856;4.404;2023-03-16T15:18:07;15.20;37.90
7900;DHT22;3995;50.856;4.404;2023-03-16T15:20:39;15.20;37.60
7900;DHT22;3995;50.856;4.404;2023-03-16T15:23:09;15.20;37.60
7900;DHT22;3995;50.856;4.404;2023-03-16T15:25:39;15.20;37.50
7900;DHT22;3995;50.856;4.404;2023-03-16T15:28:13;15.20;37.50
7900;DHT22;3995;50.856;4.404;2023-03-16T15:30:42;15.20;37.50
7900;DHT22;3995;50.856;4.404;2023-03-16T15:33:11;15.10;37.50
7900;DHT22;3995;50.856;4.404;2023-03-16T15:35:39;15.10;37.70
7900;DHT22;3995;50.856;4.404;2023-03-16T15:38:14;15.10;37.80
7900;DHT22;3995;50.856;4.404;2023-03-16T15:41:11;15.20;37.80
7900;DHT22;3995;50.856;4.404;2023-03-16T15:43:38;15.10;38.20
7900;DHT22;3995;50.856;4.404;2023-03-16T15:46:09;15.10;38.20
7900;DHT22;3995;50.856;4.404;2023-03-16T15:48:36;15.10;38.80
7900;DHT22;3995;50.856;4.404;2023-03-16T15:51:07;15.10;38.30
7900;DHT22;3995;50.856;4.404;2023-03-16T15:53:37;15.10;38.30
7900;DHT22;3995;50.856;4.404;2023-03-16T15:56:07;15.10;38.40
7900;DHT22;3995;50.856;4.404;2023-03-16T15:58:40;15.10;38.50
7900;DHT22;3995;50.856;4.404;2023-03-16T16:01:10;15.10;38.60
7900;DHT22;3995;50.856;4.404;2023-03-16T16:03:43;15.10;38.50
7900;DHT22;3995;50.856;4.404;2023-03-16T16:06:10;15.10;38.10
7900;DHT22;3995;50.856;4.404;2023-03-16T16:08:38;15.10;37.90
7900;DHT22;3995;50.856;4.404;2023-03-16T16:11:12;15.10;37.80
7900;DHT22;3995;50.856;4.404;2023-03-16T16:13:42;15.10;37.80
7900;DHT22;3995;50.856;4.404;2023-03-16T16:16:11;15.10;37.70
7900;DHT22;3995;50.856;4.404;2023-03-16T16:18:39;15.10;37.80
7900;DHT22;3995;50.856;4.404;2023-03-16T16:21:13;15.10;37.80
7900;DHT22;3995;50.856;4.404;2023-03-16T16:23:40;15.20;38.00